Time;durP1;ratioP1;P1;durP2;ratioP2;P2;SDS_P1;SDS_P2;PMS_P1;PMS_P2;Temp;Humidity;BMP_temperature;BMP_pressure;BME280_temperature;BME280_humidity;BME280_pressure;Samples;Min_cycle;Max_cycle;Signal;HPM_P1;HPM_P2
2021/06/24 00:00:45;;;;;;;;;5.00;5.00;;;;;25.54;41.00;102128.91;5062667;28;45199;-65
2021/06/24 00:03:11;;;;;;;;;4.00;4.00;;;;;25.63;40.95;102135.88;5062328;28;45419;-65
2021/06/24 00:05:36;;;;;;;;;3.25;3.25;;;;;25.51;40.88;102112.28;5062256;28;45707;-65
2021/06/24 00:08:01;;;;;;;;;4.00;4.00;;;;;25.41;40.66;102093.00;5074764;28;45365;-65
2021/06/24 00:10:27;;;;;;;;;4.00;4.00;;;;;25.61;40.65;102117.38;5062244;28;45938;-65
2021/06/24 00:12:52;;;;;;;;;3.00;3.00;;;;;25.65;41.19;102119.72;5062226;28;45457;-65
2021/06/24 00:15:18;;;;;;;;;5.00;5.00;;;;;25.40;40.88;102086.84;5061902;28;45569;-65
2021/06/24 00:17:43;;;;;;;;;4.00;3.00;;;;;25.43;41.02;102087.47;5061764;28;45334;-65
2021/06/24 00:20:09;;;;;;;;;4.00;4.00;;;;;25.64;40.96;102124.19;5062399;28;45848;-65
2021/06/24 00:22:34;;;;;;;;;4.33;4.00;;;;;25.64;40.93;102124.19;5062159;28;45309;-65
2021/06/24 00:25:00;;;;;;;;;5.00;4.25;;;;;25.50;41.11;102094.59;5061842;28;45557;-65
2021/06/24 00:27:25;;;;;;;;;3.33;2.00;;;;;25.63;41.02;102114.56;5061680;28;45311;-65
2021/06/24 00:29:51;;;;;;;;;3.00;3.00;;;;;25.62;41.20;102116.38;5062118;28;45238;-65
2021/06/24 00:32:16;;;;;;;;;4.33;3.00;;;;;25.58;40.96;102107.06;5061638;28;45469;-65
2021/06/24 00:34:42;;;;;;;;;4.75;4.75;;;;;25.66;40.99;102113.38;5062085;28;45474;-65
2021/06/24 00:37:07;;;;;;;;;2.00;2.00;;;;;25.56;41.29;102093.09;5068288;27;45368;-65
2021/06/24 00:39:32;;;;;;;;;3.00;3.00;;;;;25.67;40.91;102107.88;5062277;27;45321;-65
2021/06/24 00:41:58;;;;;;;;;4.00;4.00;;;;;25.66;41.00;102106.19;5061579;28;45372;-65
2021/06/24 00:44:24;;;;;;;;;5.00;3.00;;;;;25.66;40.60;102102.72;5060098;28;45337;-65
2021/06/24 00:46:52;;;;;;;;;5.50;3.50;;;;;25.67;40.96;102094.53;5061688;28;45436;-65
2021/06/24 00:49:17;;;;;;;;;4.00;4.00;;;;;25.63;40.49;102087.91;5061465;28;45323;-65
2021/06/24 00:51:43;;;;;;;;;3.00;3.00;;;;;25.62;40.98;102092.41;5060318;28;45352;-65
2021/06/24 00:54:08;;;;;;;;;4.75;4.75;;;;;25.70;41.05;102099.53;5061373;28;49130;-65
2021/06/24 00:56:34;;;;;;;;;3.50;3.50;;;;;25.57;40.91;102081.44;5060051;28;45342;-65
2021/06/24 00:59:00;;;;;;;;;4.75;4.75;;;;;25.62;40.94;102083.56;5073974;28;45378;-65
2021/06/24 01:01:26;;;;;;;;;4.50;4.00;;;;;25.52;40.93;102057.16;5057093;28;45498;-65
2021/06/24 01:03:51;;;;;;;;;3.25;3.25;;;;;25.56;40.65;102069.09;5080412;28;46225;-65
2021/06/24 01:06:17;;;;;;;;;3.75;3.75;;;;;25.55;40.77;102066.63;5068183;27;45222;-65
2021/06/24 01:08:42;;;;;;;;;4.00;4.00;;;;;25.70;40.88;102090.69;5080304;28;45286;-65
2021/06/24 01:11:08;;;;;;;;;4.25;4.25;;;;;25.57;40.89;102069.94;5080260;28;45499;-65
2021/06/24 01:13:33;;;;;;;;;6.00;3.00;;;;;25.57;41.21;102057.47;5080296;28;46556;-65
2021/06/24 01:15:58;;;;;;;;;3.00;3.00;;;;;25.70;40.90;102074.69;5056169;28;48749;-65
2021/06/24 01:18:24;;;;;;;;;5.00;3.00;;;;;25.67;41.03;102065.22;5080996;28;45242;-65
2021/06/24 01:20:49;;;;;;;;;3.25;3.25;;;;;25.57;41.07;102052.13;5067442;28;45498;-65
2021/06/24 01:23:15;;;;;;;;;3.00;3.00;;;;;25.66;40.70;102068.06;5080851;28;45427;-65
2021/06/24 01:25:40;;;;;;;;;3.50;3.50;;;;;25.54;40.99;102046.31;5081078;27;45306;-65
2021/06/24 01:28:08;;;;;;;;;3.00;3.00;;;;;25.59;40.92;102059.94;5081037;27;45379;-65
2021/06/24 01:30:34;;;;;;;;;3.50;2.00;;;;;25.70;40.77;102085.38;5080860;27;45469;-65
2021/06/24 01:33:00;;;;;;;;;4.25;4.00;;;;;25.63;40.98;102077.25;5081003;28;45690;-65
2021/06/24 01:35:26;;;;;;;;;3.50;3.50;;;;;25.66;40.89;102089.41;5081221;27;45177;-65
2021/06/24 01:38:05;;;;;;;;;2.00;2.00;;;;;25.69;40.91;102092.53;5068573;28;45374;-65
2021/06/24 01:40:30;;;;;;;;;4.00;4.00;;;;;25.61;40.97;102079.22;5060068;28;45422;-65
2021/06/24 01:42:56;;;;;;;;;5.00;4.00;;;;;25.67;40.62;102078.56;5055559;28;46526;-65
2021/06/24 01:45:21;;;;;;;;;3.00;3.00;;;;;25.61;41.20;102066.75;5073315;28;45280;-66
2021/06/24 01:47:47;;;;;;;;;4.00;4.00;;;;;25.60;41.13;102069.59;5072725;28;45330;-65
2021/06/24 01:50:13;;;;;;;;;2.25;2.25;;;;;25.59;41.04;102075.91;5074700;28;45654;-65
2021/06/24 01:52:43;;;;;;;;;3.00;2.00;;;;;25.67;40.65;102089.22;5072581;28;46039;-65
2021/06/24 01:55:09;;;;;;;;;3.00;3.00;;;;;25.58;40.71;102068.94;5060065;28;45255;-65
2021/06/24 01:57:35;;;;;;;;;3.00;3.00;;;;;25.63;40.90;102083.38;5080815;27;45286;-65
2021/06/24 02:00:03;;;;;;;;;4.00;3.00;;;;;25.68;40.93;102090.03;5065315;27;45336;-65
2021/06/24 02:02:29;;;;;;;;;4.25;4.00;;;;;25.52;40.96;102067.81;5068114;28;46261;-65
2021/06/24 02:04:54;;;;;;;;;2.75;2.75;;;;;25.59;41.19;102087.41;5065045;27;45556;-65
2021/06/24 02:07:20;;;;;;;;;4.00;4.00;;;;;25.57;40.96;102072.59;5059335;28;45356;-65
2021/06/24 02:09:45;;;;;;;;;4.00;4.00;;;;;25.62;40.98;102080.91;5060455;28;45254;-65
2021/06/24 02:12:10;;;;;;;;;3.00;3.00;;;;;25.68;40.93;102098.03;5059985;28;52334;-65
2021/06/24 02:14:36;;;;;;;;;3.00;3.00;;;;;25.57;40.91;102081.44;5060203;28;45260;-65
2021/06/24 02:17:01;;;;;;;;;3.00;3.00;;;;;25.64;41.31;102086.88;5060013;28;45414;-65
2021/06/24 02:19:27;;;;;;;;;5.00;4.00;;;;;25.60;41.03;102090.91;5072489;28;45441;-65
2021/06/24 02:21:52;;;;;;;;;3.00;3.00;;;;;25.64;40.78;102097.56;5060130;28;45228;-65
2021/06/24 02:24:18;;;;;;;;;3.00;3.00;;;;;25.65;41.01;102099.22;5060223;28;45220;-65
2021/06/24 02:26:43;;;;;;;;;4.00;4.00;;;;;25.54;40.88;102078.28;5059918;28;45114;-65
2021/06/24 02:29:09;;;;;;;;;2.50;2.50;;;;;25.63;40.87;102095.91;5059896;28;45205;-65
2021/06/24 02:31:34;;;;;;;;;3.50;3.50;;;;;25.59;40.69;102082.09;5060020;28;45172;-65
2021/06/24 02:34:00;;;;;;;;;4.00;4.00;;;;;25.58;40.54;102087.59;5059761;28;45162;-65
2021/06/24 02:36:25;;;;;;;;;3.75;3.75;;;;;25.52;41.07;102073.97;5062589;28;46461;-65
2021/06/24 02:38:50;;;;;;;;;3.00;3.00;;;;;25.63;41.16;102082.59;5065032;28;45499;-65
2021/06/24 02:41:16;;;;;;;;;5.00;3.67;;;;;25.68;40.95;102090.03;5059714;28;46322;-65
2021/06/24 02:43:41;;;;;;;;;2.67;2.67;;;;;25.62;40.80;102086.25;5059548;28;48730;-65
2021/06/24 02:46:07;;;;;;;;;3.00;3.00;;;;;25.62;40.93;102089.75;5058702;28;45517;-65
2021/06/24 02:48:32;;;;;;;;;3.00;3.00;;;;;25.58;40.85;102088.41;5059950;28;45458;-65
2021/06/24 02:50:57;;;;;;;;;1.25;1.25;;;;;25.67;40.94;102107.03;5060184;28;45411;-65
2021/06/24 02:53:23;;;;;;;;;3.00;3.00;;;;;25.53;40.63;102085.44;5059923;28;45307;-65
2021/06/24 02:55:48;;;;;;;;;3.00;3.00;;;;;25.57;40.80;102077.94;5060119;28;45662;-65
2021/06/24 02:58:14;;;;;;;;;3.00;3.00;;;;;25.61;41.06;102097.88;5072973;28;45577;-65
2021/06/24 03:00:39;;;;;;;;;3.00;3.00;;;;;25.54;40.85;102083.59;5060060;28;46636;-65
2021/06/24 03:03:05;;;;;;;;;5.75;5.75;;;;;25.64;41.09;102100.22;5059975;28;45265;-65
2021/06/24 03:05:30;;;;;;;;;4.00;3.00;;;;;25.65;40.86;102104.56;5060027;28;45312;-65
2021/06/24 03:07:56;;;;;;;;;4.00;3.00;;;;;25.42;40.43;102069.84;5059241;28;45126;-65
2021/06/24 03:10:22;;;;;;;;;3.25;3.25;;;;;25.59;40.73;102094.56;5079388;28;48426;-65
2021/06/24 03:12:48;;;;;;;;;3.00;3.00;;;;;25.58;40.83;102092.94;5079918;27;45249;-65
2021/06/24 03:15:14;;;;;;;;;3.33;3.33;;;;;25.46;40.85;102066.66;5071620;28;45249;-65
2021/06/24 03:17:39;;;;;;;;;3.67;3.67;;;;;25.53;40.79;102080.09;5069257;28;45217;-65
2021/06/24 03:20:06;;;;;;;;;3.75;3.25;;;;;25.64;40.57;102097.56;5071545;28;47068;-65
2021/06/24 03:22:33;;;;;;;;;2.00;2.00;;;;;25.50;40.79;102077.81;5071778;28;45290;-65
2021/06/24 03:24:59;;;;;;;;;3.00;3.00;;;;;25.39;40.50;102063.88;5079998;27;45280;-65
2021/06/24 03:27:25;;;;;;;;;3.00;3.00;;;;;25.58;40.74;102103.59;5079284;27;45330;-65
2021/06/24 03:29:50;;;;;;;;;2.67;2.67;;;;;25.57;40.97;102107.25;5054372;28;47154;-65
2021/06/24 03:32:16;;;;;;;;;3.75;3.75;;;;;25.38;40.66;102074.69;5073198;28;45230;-65
2021/06/24 03:34:41;;;;;;;;;3.00;3.00;;;;;25.48;40.88;102085.97;5080158;27;45263;-65
2021/06/24 03:37:06;;;;;;;;;4.00;4.00;;;;;25.49;41.38;102084.97;5079672;27;45216;-65
2021/06/24 03:39:32;;;;;;;;;3.00;3.00;;;;;25.49;40.94;102082.31;5059141;27;46209;-65
2021/06/24 03:41:57;;;;;;;;;4.00;3.67;;;;;25.61;40.72;102104.06;5057614;28;45264;-65
2021/06/24 03:44:23;;;;;;;;;3.00;3.00;;;;;25.38;40.90;102067.53;5057727;28;45281;-65
2021/06/24 03:46:48;;;;;;;;;4.00;3.00;;;;;25.52;40.96;102094.44;5072635;28;45429;-65
2021/06/24 03:49:14;;;;;;;;;4.00;4.00;;;;;25.61;41.02;102101.41;5079384;28;45683;-65
2021/06/24 03:51:39;;;;;;;;;3.33;2.33;;;;;25.58;40.77;102100.94;5079708;27;45226;-65
2021/06/24 03:54:04;;;;;;;;;5.00;3.00;;;;;25.51;40.92;102084.78;5082977;27;45281;-65
2021/06/24 03:56:30;;;;;;;;;1.33;1.33;;;;;25.58;41.20;102090.28;5082897;27;45484;-65
2021/06/24 03:58:55;;;;;;;;;3.00;3.00;;;;;25.55;40.90;102080.78;5076695;27;46122;-65
2021/06/24 04:01:21;;;;;;;;;2.00;2.00;;;;;25.55;40.87;102074.63;5062602;28;45734;-64
2021/06/24 04:03:46;;;;;;;;;3.75;2.25;;;;;25.60;40.96;102083.75;5062558;28;45307;-65
2021/06/24 04:06:12;;;;;;;;;2.00;2.00;;;;;25.43;40.77;102063.50;5062500;28;45340;-65
2021/06/24 04:08:37;;;;;;;;;2.00;2.00;;;;;25.52;40.89;102068.66;5062089;28;47381;-65
2021/06/24 04:11:03;;;;;;;;;3.33;3.00;;;;;25.46;40.78;102064.00;5062255;28;45371;-65
2021/06/24 04:13:29;;;;;;;;;3.00;3.00;;;;;25.60;41.02;102083.75;5061112;28;45395;-65
2021/06/24 04:15:55;;;;;;;;;2.00;2.00;;;;;25.60;40.89;102080.25;5062254;28;45390;-65
2021/06/24 04:18:20;;;;;;;;;5.75;3.00;;;;;25.55;40.71;102074.63;5062066;28;46215;-65
2021/06/24 04:20:46;;;;;;;;;2.00;2.00;;;;;25.56;41.17;102076.25;5062056;28;45171;-65
2021/06/24 04:23:11;;;;;;;;;3.25;3.00;;;;;25.57;40.82;102069.94;5062254;28;45302;-65
2021/06/24 04:25:37;;;;;;;;;4.00;2.25;;;;;25.55;40.85;102075.47;5061588;28;45227;-65
2021/06/24 04:28:03;;;;;;;;;2.00;2.00;;;;;25.49;40.60;102071.66;5076091;28;46053;-65
2021/06/24 04:30:28;;;;;;;;;3.25;3.25;;;;;25.57;40.99;102085.94;5060939;28;45287;-65
2021/06/24 04:32:55;;;;;;;;;3.75;2.50;;;;;25.59;40.76;102100.75;5061955;28;45303;-65
2021/06/24 04:35:20;;;;;;;;;4.75;2.00;;;;;25.39;40.65;102068.38;5061934;28;45544;-65
2021/06/24 04:37:46;;;;;;;;;2.00;2.00;;;;;25.58;40.75;102101.72;5069987;28;46289;-65
2021/06/24 04:40:11;;;;;;;;;2.00;2.00;;;;;25.49;40.53;102081.47;5061650;28;45331;-65
2021/06/24 04:42:37;;;;;;;;;5.00;3.00;;;;;25.43;40.80;102076.81;5061897;28;45342;-65
2021/06/24 04:45:04;;;;;;;;;4.25;3.25;;;;;25.52;40.52;102097.94;5061742;28;45361;-64
2021/06/24 04:47:29;;;;;;;;;4.00;2.25;;;;;25.51;40.65;102087.44;5061552;28;45465;-65
2021/06/24 04:49:55;;;;;;;;;3.50;3.00;;;;;25.46;40.83;102071.16;5061911;28;45329;-65
2021/06/24 04:52:20;;;;;;;;;3.25;2.00;;;;;25.35;40.63;102053.72;5061614;28;45866;-65
2021/06/24 04:54:46;;;;;;;;;2.50;2.00;;;;;25.37;40.82;102057.06;5061816;28;45629;-65
2021/06/24 04:57:12;;;;;;;;;2.00;2.00;;;;;25.38;40.75;102053.38;5065886;28;45380;-65
2021/06/24 04:59:37;;;;;;;;;2.33;2.33;;;;;25.57;40.64;102085.94;5070106;27;45291;-65
2021/06/24 05:02:03;;;;;;;;;2.00;2.00;;;;;25.50;40.39;102083.94;5061419;28;45276;-65
2021/06/24 05:04:28;;;;;;;;;1.75;1.75;;;;;25.42;40.94;102064.53;5061629;28;45411;-65
2021/06/24 05:06:56;;;;;;;;;2.00;2.00;;;;;25.49;41.20;102078.81;5061243;28;45365;-65
2021/06/24 05:09:26;;;;;;;;;2.00;1.33;;;;;25.57;41.07;102096.59;5061573;28;45340;-65
2021/06/24 05:11:51;;;;;;;;;2.00;2.00;;;;;25.56;40.87;102098.41;5060966;28;45661;-65
2021/06/24 05:14:16;;;;;;;;;3.33;3.33;;;;;25.44;40.53;102078.50;5061159;28;45236;-65
2021/06/24 05:16:42;;;;;;;;;3.25;3.25;;;;;25.40;40.74;102068.19;5060532;28;51427;-65
2021/06/24 05:19:08;;;;;;;;;3.00;3.00;;;;;25.35;40.77;102051.88;5061274;28;45685;-65
2021/06/24 05:21:33;;;;;;;;;1.67;1.33;;;;;25.33;40.78;102051.25;5060004;28;45431;-65
2021/06/24 05:23:59;;;;;;;;;3.00;3.00;;;;;25.55;40.48;102078.13;5061314;28;45460;-65
2021/06/24 05:26:24;;;;;;;;;2.25;2.25;;;;;25.49;40.76;102060.16;5060691;28;46361;-65
2021/06/24 05:28:49;;;;;;;;;3.00;3.00;;;;;25.48;40.98;102064.66;5060939;28;46135;-65
2021/06/24 05:31:15;;;;;;;;;2.00;2.00;;;;;25.55;40.87;102080.78;5059925;28;45288;-65
2021/06/24 05:33:40;;;;;;;;;4.00;3.00;;;;;25.51;41.03;102082.13;5060776;28;45442;-65
2021/06/24 05:36:06;;;;;;;;;2.00;2.00;;;;;25.47;40.75;102073.66;5060529;28;45541;-65
2021/06/24 05:38:31;;;;;;;;;2.00;2.00;;;;;25.33;40.96;102053.91;5068501;28;45413;-65
2021/06/24 05:40:57;;;;;;;;;2.00;2.00;;;;;25.35;40.76;102057.22;5060655;28;45363;-65
2021/06/24 05:43:22;;;;;;;;;2.00;2.00;;;;;25.37;40.57;102063.19;5060696;28;45506;-65
2021/06/24 05:45:48;;;;;;;;;2.50;2.50;;;;;25.55;41.13;102088.78;5060463;28;45670;-65
2021/06/24 05:48:13;;;;;;;;;3.00;3.00;;;;;25.42;41.12;102070.69;5061010;28;45303;-65
2021/06/24 05:50:40;;;;;;;;;2.25;2.25;;;;;25.39;40.82;102061.22;5060799;28;45302;-64
2021/06/24 05:53:05;;;;;;;;;3.50;3.50;;;;;25.49;41.09;102084.97;5061075;28;45219;-65
2021/06/24 05:55:49;;;;;;;;;2.00;2.00;;;;;25.55;41.03;102098.59;5076964;28;45333;-65
2021/06/24 05:58:22;;;;;;;;;1.67;1.67;;;;;25.46;40.84;102087.97;5079017;28;45375;-64
2021/06/24 06:00:48;;;;;;;;;3.00;2.00;;;;;25.46;40.48;102081.81;5061535;28;45410;-64
2021/06/24 06:03:14;;;;;;;;;3.00;3.00;;;;;25.51;40.64;102093.63;5060366;28;45332;-65
2021/06/24 06:05:39;;;;;;;;;2.25;2.25;;;;;25.57;40.45;102097.44;5060257;28;47390;-65
2021/06/24 06:08:05;;;;;;;;;2.50;2.50;;;;;25.55;41.01;102098.59;5063409;28;45367;-65
2021/06/24 06:10:31;;;;;;;;;2.00;2.00;;;;;25.54;41.02;102095.09;5060082;28;45312;-65
2021/06/24 06:12:57;;;;;;;;;3.00;3.00;;;;;25.57;41.21;102100.09;5068618;28;45286;-65
2021/06/24 06:15:22;;;;;;;;;3.00;2.00;;;;;25.58;41.07;102098.25;5059610;28;45352;-65
2021/06/24 06:17:48;;;;;;;;;3.00;3.00;;;;;25.58;40.89;102100.94;5075732;28;48353;-65
2021/06/24 06:20:13;;;;;;;;;4.00;3.00;;;;;25.43;40.88;102071.50;5080870;27;45264;-65
2021/06/24 06:22:39;;;;;;;;;2.00;2.00;;;;;25.59;41.06;102105.22;5080642;27;45235;-64
2021/06/24 06:25:05;;;;;;;;;2.67;2.67;;;;;25.49;39.27;102071.66;5080157;27;46297;-65
2021/06/24 06:27:30;;;;;;;;;3.75;2.75;;;;;25.57;38.67;102089.44;5080307;27;45359;-65
2021/06/24 06:29:56;;;;;;;;;2.25;2.00;;;;;25.53;38.00;102093.44;5080435;27;45790;-65
2021/06/24 06:32:22;;;;;;;;;3.75;3.00;;;;;25.37;38.09;102079.19;5080248;27;45311;-65
2021/06/24 06:34:47;;;;;;;;;5.00;5.00;;;;;25.33;38.27;102072.56;5071005;28;46115;-65
2021/06/24 06:37:13;;;;;;;;;4.00;3.75;;;;;25.22;38.15;102073.75;5073552;28;45362;-65
2021/06/24 06:39:38;;;;;;;;;5.00;3.75;;;;;25.30;38.06;102086.22;5061064;28;45329;-65
2021/06/24 06:42:04;;;;;;;;;2.25;2.00;;;;;25.09;38.01;102071.63;5078232;27;45563;-63
2021/06/24 06:44:29;;;;;;;;;1.75;1.75;;;;;25.09;37.97;102060.97;5070968;28;47213;-63
2021/06/24 06:46:55;;;;;;;;;3.25;3.00;;;;;25.29;38.02;102088.03;5059751;28;46458;-63
2021/06/24 06:49:20;;;;;;;;;3.25;2.25;;;;;25.25;38.14;102062.75;5060069;28;48941;-63
2021/06/24 06:51:45;;;;;;;;;2.33;2.00;;;;;25.40;38.06;102081.50;5066332;28;45215;-63
2021/06/24 06:54:11;;;;;;;;;4.00;3.00;;;;;25.50;38.07;102083.94;5062325;28;48723;-62
2021/06/24 06:56:36;;;;;;;;;3.50;2.50;;;;;25.52;37.72;102070.47;5058263;28;45254;-62
2021/06/24 06:59:05;;;;;;;;;3.25;2.75;;;;;25.67;38.17;102091.03;5078529;27;45354;-63
2021/06/24 07:01:30;;;;;;;;;0.00;0.00;;;;;25.73;37.80;102079.69;5060995;28;45562;-63
2021/06/24 07:03:56;;;;;;;;;4.25;4.00;;;;;25.59;37.90;102041.28;5071842;28;45461;-63
2021/06/24 07:06:21;;;;;;;;;3.00;3.00;;;;;25.74;37.82;102060.03;5070407;27;45443;-63
2021/06/24 07:08:46;;;;;;;;;3.33;3.33;;;;;25.84;37.91;102063.31;5066710;28;45477;-63
2021/06/24 07:11:12;;;;;;;;;2.67;2.33;;;;;25.94;37.90;102071.06;5059404;28;45584;-63
2021/06/24 07:13:38;;;;;;;;;2.00;2.00;;;;;25.90;37.68;102058.28;5066983;28;45434;-63
2021/06/24 07:16:03;;;;;;;;;3.00;3.00;;;;;26.03;37.80;102074.53;5072637;28;46088;-63
2021/06/24 07:18:29;;;;;;;;;4.00;3.00;;;;;26.03;37.85;102068.34;5069929;28;45412;-63
2021/06/24 07:20:54;;;;;;;;;2.00;2.00;;;;;26.15;38.14;102082.13;5073323;28;45224;-63
2021/06/24 07:23:20;;;;;;;;;3.00;2.67;;;;;26.17;37.76;102085.44;5078340;27;46325;-63
2021/06/24 07:25:46;;;;;;;;;2.00;2.00;;;;;26.21;37.86;102083.22;5071189;28;45549;-63
2021/06/24 07:28:11;;;;;;;;;2.75;2.75;;;;;25.97;37.90;102048.56;5073604;28;45393;-63
2021/06/24 07:30:37;;;;;;;;;1.50;1.50;;;;;26.18;37.68;102079.91;5073975;27;45486;-65
2021/06/24 07:33:02;;;;;;;;;2.50;2.00;;;;;26.24;37.86;102083.69;5069050;27;45256;-64
2021/06/24 07:35:28;;;;;;;;;3.00;3.00;;;;;26.28;37.88;102078.84;5072326;27;45433;-64
2021/06/24 07:37:53;;;;;;;;;4.67;2.33;;;;;26.34;37.80;102087.94;5073632;27;45335;-64
2021/06/24 07:40:18;;;;;;;;;3.00;3.00;;;;;26.25;37.93;102076.53;5079165;27;45352;-64
2021/06/24 07:42:44;;;;;;;;;3.00;2.00;;;;;26.37;38.20;102087.59;5075526;28;45682;-64
2021/06/24 07:45:10;;;;;;;;;2.33;2.33;;;;;26.32;38.16;102066.78;5070517;27;45402;-64
2021/06/24 07:47:36;;;;;;;;;3.50;2.75;;;;;26.40;37.75;102074.75;5072015;27;45641;-64
2021/06/24 07:50:01;;;;;;;;;5.00;3.50;;;;;26.33;38.08;102054.28;5081196;27;45469;-64
2021/06/24 07:52:27;;;;;;;;;2.33;2.33;;;;;26.27;38.07;102042.50;5079072;27;46464;-64
2021/06/24 07:54:52;;;;;;;;;3.50;3.25;;;;;26.52;38.15;102074.31;5070016;28;45272;-64
2021/06/24 07:57:18;;;;;;;;;2.33;2.33;;;;;26.49;38.17;102072.03;5068771;28;45869;-64
2021/06/24 07:59:44;;;;;;;;;3.00;3.00;;;;;26.32;38.17;102039.28;5072476;28;45518;-64
2021/06/24 08:02:09;;;;;;;;;3.00;3.00;;;;;26.48;38.21;102059.69;5075625;27;51179;-64
2021/06/24 08:04:34;;;;;;;;;2.67;2.67;;;;;26.60;38.10;102076.06;5076518;27;46003;-64
2021/06/24 08:07:01;;;;;;;;;1.00;1.00;;;;;26.63;37.86;102083.72;5071566;27;45398;-64
2021/06/24 08:09:26;;;;;;;;;3.50;3.00;;;;;26.59;38.28;102072.59;5070575;27;45451;-65
2021/06/24 08:11:51;;;;;;;;;2.33;2.33;;;;;26.69;38.58;102079.50;5068533;27;45515;-63
2021/06/24 08:14:17;;;;;;;;;3.00;3.00;;;;;26.59;38.55;102064.59;5081456;28;45150;-65
2021/06/24 08:16:42;;;;;;;;;3.00;3.00;;;;;26.67;38.20;102063.69;5080098;28;45465;-63
2021/06/24 08:19:08;;;;;;;;;5.00;3.00;;;;;26.72;38.53;102074.66;5074816;27;45567;-64
2021/06/24 08:21:33;;;;;;;;;6.00;3.00;;;;;26.73;37.97;102062.09;5076181;28;45310;-65
2021/06/24 08:23:59;;;;;;;;;3.67;3.00;;;;;26.90;38.29;102075.28;5076548;28;45327;-64
2021/06/24 08:26:24;;;;;;;;;4.00;4.00;;;;;26.91;38.45;102053.72;5074387;28;45628;-64
2021/06/24 08:28:50;;;;;;;;;3.00;3.00;;;;;27.07;38.02;102057.22;5074183;27;45630;-65
2021/06/24 08:31:15;;;;;;;;;2.25;2.25;;;;;27.12;38.59;102052.16;5070676;28;52083;-66
2021/06/24 08:33:41;;;;;;;;;3.67;3.00;;;;;27.39;39.17;102049.84;5051955;28;45561;-73
2021/06/24 08:36:07;;;;;;;;;3.50;3.50;;;;;27.66;38.64;102043.13;5060460;28;45552;-74
2021/06/24 08:38:33;;;;;;;;;3.25;3.25;;;;;27.85;38.09;102053.22;5078465;27;45517;-75
2021/06/24 08:40:59;;;;;;;;;4.00;3.00;;;;;28.03;37.63;102068.00;5066484;27;45431;-71
2021/06/24 08:43:24;;;;;;;;;5.33;4.33;;;;;28.07;37.79;102060.41;5027780;27;47105;-68
2021/06/24 08:45:50;;;;;;;;;5.00;3.67;;;;;28.15;36.45;102064.81;5016996;28;45442;-68
2021/06/24 08:48:16;;;;;;;;;4.00;3.67;;;;;28.21;35.55;102077.41;5029401;28;45411;-66
2021/06/24 08:50:46;;;;;;;;;8.33;4.67;;;;;28.12;34.59;102057.16;5021924;28;46855;-76
2021/06/24 08:53:12;;;;;;;;;7.25;4.00;;;;;27.96;34.83;102053.72;5021779;28;45404;-67
2021/06/24 08:55:40;;;;;;;;;4.00;4.00;;;;;27.88;34.51;102041.31;5015344;28;45442;-68
2021/06/24 08:58:07;;;;;;;;;6.75;5.00;;;;;28.02;34.17;102063.69;5035042;28;45345;-66
2021/06/24 09:03:55;;;;;;;;;5.00;5.00;;;;;28.18;32.02;102069.78;5034980;28;71922;-85
2021/06/24 09:07:25;;;;;;;;;6.00;6.00;;;;;29.67;38.86;102060.88;5025505;28;45448;-93
2021/06/24 09:09:52;;;;;;;;;6.00;5.00;;;;;30.58;28.92;102062.38;5016357;28;45667;-81
2021/06/24 09:12:17;;;;;;;;;5.00;3.00;;;;;32.01;27.31;102006.00;5032890;28;45465;-83
2021/06/24 09:15:02;;;;;;;;;6.50;6.50;;;;;35.03;24.63;102057.00;5035392;28;45489;-82
2021/06/24 09:17:55;;;;;;;;;6.00;6.00;;;;;37.20;23.26;102035.44;5029077;28;45584;-86
2021/06/24 09:20:32;;;;;;;;;6.00;4.25;;;;;38.48;21.43;102060.22;5032834;28;45405;-87
2021/06/24 09:23:43;;;;;;;;;5.67;5.00;;;;;37.35;24.30;102067.31;5022873;28;45499;-84
2021/06/24 09:26:13;;;;;;;;;8.00;5.67;;;;;39.00;20.37;102048.69;5031527;28;45325;-78
2021/06/24 09:28:40;;;;;;;;;6.67;4.00;;;;;39.61;18.83;102023.66;5028122;28;45398;-76
2021/06/24 09:31:28;;;;;;;;;4.67;4.67;;;;;41.27;18.48;102034.88;5032520;28;45301;-76
2021/06/24 09:33:56;;;;;;;;;4.67;3.33;;;;;42.94;17.13;102047.69;5029372;28;45403;-78
2021/06/24 09:36:52;;;;;;;;;4.00;4.00;;;;;44.06;15.43;102043.50;5031508;28;45457;-78
2021/06/24 09:39:28;;;;;;;;;5.00;3.00;;;;;43.94;15.19;102063.22;5039133;28;45470;-77
2021/06/24 09:42:11;;;;;;;;;5.75;5.75;;;;;43.20;14.20;102016.34;5031651;28;45388;-78
2021/06/24 09:44:39;;;;;;;;;6.33;4.33;;;;;40.96;15.30;102037.03;5025656;28;46995;-77
2021/06/24 09:47:20;;;;;;;;;7.00;6.00;;;;;41.66;15.47;102067.06;5032958;28;45601;-77
2021/06/24 09:50:04;;;;;;;;;8.00;5.67;;;;;42.59;15.42;102015.13;5021136;28;45404;-77
2021/06/24 09:52:30;;;;;;;;;8.00;5.00;;;;;43.88;13.91;102062.50;5019024;28;45426;-77
2021/06/24 09:55:13;;;;;;;;;4.00;4.00;;;;;44.13;13.79;102000.06;5025486;28;45560;-90
2021/06/24 10:01:00;;;;;;;;;5.00;4.67;;;;;41.34;13.97;101969.03;5028294;28;45724;-77
2021/06/24 10:03:33;;;;;;;;;4.67;4.00;;;;;39.43;15.36;102052.25;5032203;28;45418;-75
2021/06/24 10:06:34;;;;;;;;;5.00;5.00;;;;;36.77;17.29;102028.75;5087688;27;45522;-73
2021/06/24 10:09:00;;;;;;;;;8.00;7.33;;;;;35.23;18.28;102039.53;5081678;27;45461;-71
2021/06/24 10:11:26;;;;;;;;;8.67;5.00;;;;;34.05;19.39;102043.88;5083193;27;45858;-71
2021/06/24 10:13:52;;;;;;;;;5.00;5.00;;;;;33.06;20.74;102049.47;5083158;27;45410;-70
2021/06/24 10:16:18;;;;;;;;;5.00;5.00;;;;;32.22;21.52;102062.38;5082996;27;45993;-71
2021/06/24 10:18:49;;;;;;;;;6.00;5.50;;;;;31.46;22.36;102062.06;5085977;27;45746;-74
2021/06/24 10:21:15;;;;;;;;;6.50;6.00;;;;;30.84;22.93;102057.97;5089051;27;45383;-73
2021/06/24 10:23:48;;;;;;;;;5.00;5.00;;;;;30.34;23.38;102057.47;5090674;27;45437;-74
2021/06/24 10:26:15;;;;;;;;;5.33;5.00;;;;;29.95;23.38;102057.25;5089571;27;45854;-73
2021/06/24 10:28:41;;;;;;;;;5.00;5.00;;;;;29.57;23.91;102062.09;5093319;27;45586;-73
2021/06/24 10:31:06;;;;;;;;;7.50;6.50;;;;;29.31;24.28;102057.50;5092171;27;45466;-74
2021/06/24 10:33:55;;;;;;;;;7.00;7.00;;;;;29.06;25.47;102062.34;5096478;27;45429;-71
2021/06/24 10:36:21;;;;;;;;;7.50;6.75;;;;;28.85;24.87;102056.06;5095698;27;45484;-74
2021/06/24 10:38:51;;;;;;;;;11.25;8.00;;;;;28.60;26.11;102039.63;5095971;27;45476;-73
2021/06/24 10:41:16;;;;;;;;;6.75;5.00;;;;;28.57;25.26;102056.09;5095501;27;45427;-74
2021/06/24 10:43:47;;;;;;;;;8.00;7.00;;;;;28.40;25.09;102054.50;5091310;27;45237;-73
2021/06/24 10:46:18;;;;;;;;;8.75;8.00;;;;;28.31;24.95;102066.38;5083588;27;47092;-76
2021/06/24 10:48:43;;;;;;;;;7.25;6.75;;;;;28.16;25.43;102048.56;5096216;27;45169;-75
2021/06/24 10:51:11;;;;;;;;;6.50;6.50;;;;;28.17;25.72;102063.59;5087106;27;45844;-74
2021/06/24 10:53:46;;;;;;;;;5.50;5.50;;;;;28.11;26.22;102052.81;5095853;27;45436;-75
2021/06/24 10:56:34;;;;;;;;;9.00;7.00;;;;;28.04;26.10;102052.78;5083405;27;45417;-73
2021/06/24 10:59:20;;;;;;;;;12.00;9.00;;;;;27.99;26.88;102057.88;5095554;27;45248;-73
2021/06/24 11:01:47;;;;;;;;;8.25;8.25;;;;;27.93;26.84;102062.13;5095339;27;45448;-73
2021/06/24 11:04:37;;;;;;;;;7.75;7.00;;;;;27.88;26.57;102068.06;5095217;27;45513;-73
2021/06/24 11:07:21;;;;;;;;;7.00;7.00;;;;;27.84;26.64;102061.44;5088336;27;47228;-73
2021/06/24 11:10:12;;;;;;;;;10.00;10.00;;;;;27.81;27.09;102072.53;5088055;27;45351;-72
2021/06/24 11:12:48;;;;;;;;;9.00;7.50;;;;;27.66;27.49;102052.00;5087556;27;45489;-73
2021/06/24 11:15:43;;;;;;;;;10.50;10.25;;;;;27.69;27.55;102066.81;5094919;27;45185;-72
2021/06/24 11:18:09;;;;;;;;;8.75;7.75;;;;;27.61;27.48;102052.53;5078128;28;46202;-72
2021/06/24 11:20:43;;;;;;;;;10.75;9.75;;;;;27.54;27.49;102057.00;5086421;27;45516;-72
2021/06/24 11:23:29;;;;;;;;;10.75;9.00;;;;;27.57;28.23;102055.78;5080659;28;45154;-70
2021/06/24 11:26:06;;;;;;;;;8.75;8.75;;;;;27.61;28.06;102062.44;5080006;28;45446;-71
2021/06/24 11:28:49;;;;;;;;;7.75;7.25;;;;;27.59;28.67;102054.56;5078672;28;46492;-70
2021/06/24 11:31:19;;;;;;;;;9.00;8.75;;;;;27.51;28.43;102047.50;5079607;28;45329;-73
2021/06/24 11:34:10;;;;;;;;;12.25;8.75;;;;;27.45;28.04;102047.44;5071407;28;45723;-72